Warm Springs Summit, Nevada Weather observations

Data are for observation ending at time listed.
 Day   Time    Ave.   Ave.  Ave.  Vector   Max.   Stn.    Total    Solar   Ave.  
  of    of     Air    Rel.  Wind   Wind    Wind   Baro.  Precip.   Rad.    Soil  
Year   Day     Temp.  Hum.  Speed  Dir.    Gust   Pres.                    Temp. 
2017   (PST)    F      %     mph   deg.    mph     mb.     in.     W/m2     F   
------------------------------------------------------------------------------
  35   20:50   31.6    93   21.8   268     25.0   770.3    0.00       0    38.3
  35   21:00   31.5    94   22.6   272     25.4   770.4    0.00       0    38.2
  35   21:10   31.4    94   22.8   270     25.8   770.5    0.00       0    38.1
  35   21:20   31.4    94   23.2   267     27.2   770.6    0.00       0    38.0
  35   21:30   31.4    94   22.6   264     26.1   770.6    0.00       0    37.9
  35   21:40   31.4    94   22.1   266     26.5   770.6    0.00       0    37.9
  35   21:50   31.4    94   21.8   265     26.6   770.7    0.00       0    37.8
  35   22:00   31.3    95   21.9   267     25.4   770.7    0.00       0    37.7
  35   22:10   31.2    95   22.1   268     25.6   770.8    0.00       0    37.6
  35   22:20   30.9    96   21.5   270     25.0   771.0    0.00       0    37.5
  35   22:30   30.8    96   21.1   267     24.2   771.0    0.00       0    37.5
  35   22:40   31.1    96   20.6   266     23.7   771.0    0.00       0    37.4
  35   22:50   31.1    96   20.1   270     23.2   771.0    0.00       0    37.4
  35   23:00   31.1    96   20.6   269     24.0   770.9    0.00       0    37.3
  35   23:10   31.1    96   20.6   268     23.4   770.9    0.00       0    37.2
  35   23:20   31.2    96   20.8   269     23.7   770.9    0.00       0    37.2
  35   23:30   31.2    96   19.5   269     22.2   770.9    0.00       0    37.1
  35   23:40   31.0    96   19.4   271     21.6   770.9    0.00       0    37.1
  35   23:50   31.1    96   18.3   268     21.8   770.8    0.00       0    37.0
  36    0:00   31.0    96   19.0   274     22.6   770.8    0.00       0    37.0
  36    0:10   31.0    96   19.2   272     22.0   770.8    0.00       0    36.9
  36    0:20   31.0    96   19.4   274     22.6   770.8    0.00       0    36.9
  36    0:30   30.9    97   19.4   276     21.8   770.8    0.00       0    36.8
  36    0:40   30.8    97   19.4   274     22.0   770.8    0.00       0    36.8
  36    0:50   30.8    97   20.1   275     22.8   770.7    0.00       0    36.7
  36    1:00   30.6    97   20.5   278     22.9   770.7    0.00       0    36.7
  36    1:10   30.7    97   18.5   275     21.7   770.8    0.00       0    36.6
  36    1:20   30.7    97   18.6   273     22.0   770.8    0.00       0    36.6
  36    1:30   30.9    97   18.0   272     20.6   770.8    0.00       0    36.6
  36    1:40   31.0    97   18.1   272     19.9   770.9    0.00       0    36.5
  36    1:50   31.0    97   17.2   272     19.5   770.8    0.00       0    36.5
  36    2:00   30.9    97   17.2   273     19.6   770.8    0.00       0    36.4
  36    2:10   30.8    97   16.5   275     18.2   770.7    0.00       0    36.4
  36    2:20   31.0    97   16.2   276     18.5   770.7    0.00       0    36.4
  36    2:30   31.1    97   14.8   278     16.8   770.6    0.00       0    36.3
  36    2:40   31.2    97   14.2   280     15.2   770.7    0.00       0    36.3
  36    2:50   31.4    96   14.1   280     15.3   770.6    0.00       0    36.3
  36    3:00   31.4    95   13.3   279     14.9   770.6    0.00       0    36.2
  36    3:10   31.5    95   12.2   279     13.6   770.5    0.00       0    36.2
  36    3:20   31.6    94   11.4   280     13.1   770.5    0.00       0    36.2
  36    3:30   31.9    94   10.6   281     12.2   770.4    0.00       0    36.1
  36    3:40   31.9    93   10.3   282     11.9   770.4    0.00       0    36.1
  36    3:50   31.9    93    9.2   287     10.0   770.3    0.00       0    36.1
  36    4:00   31.9    92    8.6   286      9.9   770.2    0.00       0    36.0
  36    4:10   31.9    92    9.0   288     10.9   770.3    0.00       0    36.0
  36    4:20   31.8    92    9.8   287     10.8   770.3    0.00       0    36.0
  36    4:30   31.8    92    8.4   293     10.0   770.2    0.00       0    35.9
  36    4:40   31.8    92    7.8   291      9.4   770.1    0.00       0    35.9
  36    4:50   31.8    92    5.2   284      7.9   770.0    0.00       0    35.9
  36    5:00   33.2    81    3.9   247      5.2   770.0    0.00       0    35.9
  36    5:10   34.6    71    5.0   237      6.3   770.1    0.00       0    35.8
  36    5:20   34.7    70    6.0   235      7.2   770.1    0.00       0    35.8
  36    5:30   34.4    75    5.4   236      6.1   770.0    0.00       0    35.8
  36    5:40   34.9    70    4.3   198      6.3   770.0    0.00       0    35.8
  36    5:50   34.1    76    4.8   182      6.5   770.0    0.00       0    35.7
  36    6:00   34.4    72    5.3   173      6.8   770.0    0.00       0    35.7
  36    6:10   34.3    69    6.2   156      8.1   770.0    0.00       0    35.7
  36    6:20   34.9    65    6.8   154      8.0   769.9    0.00       0    35.7
  36    6:30   35.1    65    7.4   153      8.7   770.0    0.00       1    35.7
  36    6:40   34.9    66    6.9   148      8.5   770.0    0.00       4    35.6
  36    6:50   35.2    66    8.0   141     10.3   770.0    0.00      12    35.6
  36    7:00   34.8    69    8.5   132     10.6   769.9    0.00      12    35.6
  36    7:10   34.7    70   10.1   129     11.8   770.0    0.00      18    35.6
  36    7:20   33.8    77    8.4   118     10.5   770.0    0.00      30    35.5
  36    7:30   32.3    86    8.0   110      9.5   770.1    0.00      36    35.5
  36    7:40   32.5    84    8.2   113      9.7   770.2    0.00      46    35.5
  36    7:50   32.4    86    6.9   114      8.2   770.3    0.00      58    35.5
  36    8:00   33.0    82    6.9   120      7.9   770.3    0.00      73    35.5
  36    8:10   33.6    80    7.3   128      8.2   770.2    0.00     107    35.4
  36    8:20   33.6    81    7.5   120      9.5   770.2    0.00     173    35.4
  36    8:30   33.7    82    7.3   116      9.5   770.2    0.00     192    35.4
  36    8:40   33.7    83    7.5   113      8.9   770.3    0.00     199    35.4
  36    8:50   33.5    84    6.1   123      7.9   770.3    0.00     219    35.4
  36    9:00   34.3    82    7.7   161     10.1   770.4    0.00     214    35.4
  36    9:10   35.0    78    8.3   206     10.6   770.6    0.00     255    35.4
  36    9:20   34.4    81    6.6   220      9.8   770.6    0.00     283    35.3
  36    9:30   33.5    86    5.3   261      8.4   770.7    0.00     330    35.3
  36    9:40   32.4    92    7.5   276      9.8   770.5    0.00     363    35.3
  36    9:50   32.6    91    9.1   278     12.8   770.5    0.00     409    35.3
  36   10:00   33.6    86    8.5   282     10.9   770.5    0.00     402    35.3
  36   10:10   34.0    85    8.9   292     11.7   770.5    0.00     380    35.3
  36   10:20   34.1    86    8.0   275     11.3   770.6    0.00     417    35.3
  36   10:30   35.0    84    5.2   278      8.7   770.5    0.00     439    35.3
  36   10:40   36.4    80    3.3   275      5.9   770.5    0.00     486    35.3
  36   10:50   38.4    77    3.8    93      7.4   770.3    0.00     523    35.2
  36   11:00   39.4    75    3.7   112      6.7   770.2    0.00     474    35.2
  36   11:10   38.1    77    4.1    66      7.6   770.0    0.00     415    35.2
  36   11:20   36.9    77    4.7    48      7.7   769.8    0.00     410    35.3
  36   11:30   37.9    77    5.6   134      7.9   769.8    0.00     332    35.3
  36   11:40   37.6    78    4.1   185      7.3   769.7    0.00     322    35.3
  36   11:50   38.8    69    2.2   189      4.6   769.4    0.00     303    35.4
  36   12:00   39.0    70    4.0   104      6.5   769.1    0.00     342    35.5
  36   12:10   38.9    69    4.3   131      6.7   768.9    0.00     357    35.6
  36   12:20   39.0    71    4.4   188      7.3   768.7    0.00     315    35.7
  36   12:30   39.1    71    5.8   180      8.5   768.5    0.00     328    35.8
  36   12:40   39.4    72    7.0   147     10.3   768.1    0.00     484    35.9
  36   12:50   39.7    71   11.4   142     15.6   767.8    0.00     451    36.0
  36   13:00   39.3    72   12.4   137     15.9   767.5    0.00     351    36.2
  36   13:10   38.6    74   10.8   145     14.1   767.5    0.00     340    36.3
  36   13:20   38.1    75   10.1   152     14.0   767.5    0.00     300    36.4
  36   13:30   38.5    74    8.8   170     13.8   767.3    0.00     292    36.6
  36   13:40   38.2    75   10.5   150     14.9   767.2    0.00     238    36.7
  36   13:50   37.8    76    9.6   155     13.4   767.1    0.00     224    36.9
  36   14:00   38.0    76   10.5   153     13.8   767.0    0.00     224    37.0
  36   14:10   38.1    76    9.5   164     12.9   767.0    0.00     191    37.2
  36   14:20   38.3    77    5.3   188      8.7   767.0    0.00     192    37.3
  36   14:30   38.5    77    5.5   190      8.2   766.9    0.00     187    37.4
  36   14:40   38.5    78    6.5   178      9.8   766.8    0.00     183    37.5
  36   14:50   37.9    77    7.5   209      9.5   766.8    0.00     161    37.7
  36   15:00   38.3    75    6.3   174     10.1   766.7    0.00     144    37.8
  36   15:10   38.1    75    6.6   177     12.9   766.7    0.00     125    37.9
  36   15:20   38.0    75    6.6   158     11.2   766.6    0.00     102    38.0
  36   15:30   37.8    76    6.6   159      9.1   766.5    0.00      92    38.0
  36   15:40   37.5    77    6.9   203      8.4   766.6    0.00      75    38.1
  36   15:50   37.1    77    7.3   229     10.4   766.5    0.00      51    38.2
  36   16:00   37.2    76    8.2   219     12.0   766.4    0.00      41    38.3
  36   16:10   37.2    74    8.7   226     12.1   766.5    0.00      33    38.3
  36   16:20   37.0    72   11.3   239     14.6   766.5    0.00      25    38.4
  36   16:30   36.9    70   11.4   239     14.8   766.5    0.00      24    38.4
  36   16:40   36.7    72   10.5   251     15.1   766.4    0.00      21    38.5
  36   16:50   36.2    75   10.1   248     14.0   766.4    0.00      14    38.5
  36   17:00   36.3    75   10.9   239     14.0   766.2    0.00       9    38.5
  36   17:10   35.8    77   11.5   240     14.5   766.0    0.00       2    38.6
  36   17:20   35.5    79   10.7   248     14.2   766.0    0.00       0    38.6
  36   17:30   35.1    80   10.1   251     13.2   765.9    0.00       0    38.6
  36   17:40   34.7    81   10.2   255     12.9   765.8    0.00       0    38.6
  36   17:50   34.2    83    9.4   263     12.6   765.8    0.00       0    38.6
  36   18:00   34.0    84    8.6   263     11.7   765.8    0.00       0    38.5
  36   18:10   34.5    78   11.3   236     15.5   765.7    0.00       0    38.5
  36   18:20   35.4    72   13.0   226     15.8   765.5    0.00       0    38.5
  36   18:30   35.5    68   14.9   225     18.1   765.5    0.00       0    38.5
  36   18:40   35.9    63   20.3   214     24.7   765.2    0.00       0    38.4
  36   18:50   35.8    62   18.9   217     24.6   765.1    0.00       0    38.4
  36   19:00   35.9    59   18.2   217     24.8   765.2    0.00       0    38.4
  36   19:10   35.4    61   17.9   214     23.8   765.2    0.00       0    38.3
  36   19:20   35.2    60   16.1   213     22.0   765.1    0.00       0    38.2
  36   19:30   35.4    58   14.2   188     19.9   765.0    0.00       0    38.2
  36   19:40   35.2    58   12.4   188     19.3   765.1    0.00       0    38.1
  36   19:50   34.8    60   11.9   203     19.0   765.0    0.00       0    38.1
  36   20:00   34.9    60   14.2   213     20.0   764.8    0.00       0    38.0
  36   20:10   35.0    60   17.8   208     23.7   764.6    0.00       0    37.9
  36   20:20   34.8    62   14.0   207     17.5   764.7    0.00       0    37.9
  36   20:30   34.7    62   14.5   199     19.6   764.5    0.00       0    37.8
  36   20:40   35.1    60   14.1   200     19.3   764.3    0.00       0    37.7

Return to Warm Springs Summit, Nevada graphs page.


Western Regional Climate Center,wrcc@dri.edu